Coalton, Illinois
Current Conditions -  °F | °C
As of 7:55 AM on Monday 24 Nov 2014 (Local Time) from KTAZ Reporting Station
Overcast Overcast  
Wind Chill: 22°   Ceiling: 1400
Heat Index: 34°   Visibility: 10mi
Dew Point: 32°   Wind: 21mph
Humidity: 93%   Direction: 260°W
Pressure: 29.45"   Gusts: 31mph
Location:  39.3183°N, 89.2952°W
Report Text: KTAZ 241355Z AUTO 26018G27KT 10SM OVC014 01/00 A2945 RMK AO2
Loading
Personal Weather Stations






























Interactive Weather Map New forecast layout! Learn more

10-Day Weather Forecast

Advertisements
Track Severe Weather on mobile